createdAt,value
2018-09-09T00:00:46.831Z,14.97
2018-09-09T00:03:17.845Z,12.13
2018-09-09T00:08:26.184Z,14.20
2018-09-09T00:10:55.244Z,13.20
2018-09-09T00:13:24.309Z,12.63
2018-09-09T00:15:56.562Z,10.97
2018-09-09T00:18:26.577Z,12.10
2018-09-09T00:23:31.345Z,14.57
2018-09-09T00:28:36.093Z,16.60
2018-09-09T00:31:07.108Z,13.53
2018-09-09T00:33:36.177Z,13.17
2018-09-09T00:36:05.234Z,12.60
2018-09-09T00:38:34.305Z,11.97
2018-09-09T00:43:39.086Z,13.20
2018-09-09T00:46:08.185Z,15.10
2018-09-09T00:48:37.260Z,12.80
2018-09-09T00:56:17.790Z,14.93
2018-09-09T00:58:46.857Z,16.87
2018-09-09T01:01:15.917Z,13.60
2018-09-09T01:03:45.034Z,11.67
2018-09-09T01:21:54.541Z,14.80
2018-09-09T01:24:23.684Z,14.65
2018-09-09T01:26:57.614Z,13.60
2018-09-09T01:32:03.503Z,15.05
2018-09-09T01:34:33.516Z,13.03
2018-09-09T01:39:42.778Z,17.60
2018-09-09T01:42:25.453Z,16.30
2018-09-09T01:44:56.514Z,13.13
2018-09-09T01:50:01.287Z,14.10
2018-09-09T01:52:39.956Z,15.75
2018-09-09T01:55:09.012Z,13.10
2018-09-09T01:57:42.375Z,10.30
2018-09-09T02:02:47.167Z,11.93
2018-09-09T02:05:16.341Z,13.00
2018-09-09T02:07:45.410Z,11.98
2018-09-09T02:14:12.260Z,11.90
2018-09-09T02:16:41.333Z,11.45
2018-09-09T02:19:10.393Z,11.07
2018-09-09T02:24:15.383Z,12.80
2018-09-09T02:26:44.438Z,13.40
2018-09-09T02:29:15.395Z,13.90
2018-09-09T02:31:44.446Z,14.80
2018-09-09T02:34:16.917Z,19.52
2018-09-09T02:36:46.938Z,14.87
2018-09-09T02:41:51.712Z,16.00
2018-09-09T02:44:20.782Z,14.30
2018-09-09T02:46:51.834Z,13.90
2018-09-09T02:51:56.625Z,12.30
2018-09-09T02:54:25.684Z,15.02
2018-09-09T02:56:55.689Z,15.38
2018-09-09T02:59:25.730Z,12.03
2018-09-09T03:04:30.501Z,13.40
2018-09-09T03:06:59.560Z,14.80
2018-09-09T03:09:30.617Z,14.60
2018-09-09T03:12:00.718Z,13.70
2018-09-09T03:14:29.759Z,13.00
2018-09-09T03:16:58.834Z,13.80
2018-09-09T03:19:27.888Z,14.50
2018-09-09T03:21:56.964Z,14.17
2018-09-09T03:24:26.016Z,13.00
2018-09-09T03:26:55.080Z,16.80
2018-09-09T03:29:24.152Z,16.40
2018-09-09T03:31:55.169Z,16.65
2018-09-09T03:34:24.243Z,14.70
2018-09-09T03:36:53.336Z,13.37
2018-09-09T03:39:22.393Z,13.60
2018-09-09T03:41:55.044Z,14.73
2018-09-09T03:44:26.014Z,14.77
2018-09-09T03:46:56.010Z,13.30
2018-09-09T03:49:26.042Z,14.47
2018-09-09T03:54:32.341Z,15.83
2018-09-09T03:57:03.364Z,18.33
2018-09-09T03:59:33.396Z,13.87
2018-09-09T04:02:05.761Z,13.30
2018-09-09T04:07:10.550Z,14.53
2018-09-09T04:09:39.627Z,13.73
2018-09-09T04:12:09.627Z,13.40
2018-09-09T04:14:43.638Z,11.87
2018-09-09T04:19:48.407Z,14.43
2018-09-09T04:22:19.385Z,14.60
2018-09-09T04:24:48.466Z,14.57
2018-09-09T04:27:19.470Z,12.73
2018-09-09T04:29:48.528Z,12.00
2018-09-09T04:32:17.591Z,11.00
2018-09-09T04:34:50.978Z,14.80
2018-09-09T04:39:59.309Z,16.00
2018-09-09T04:42:28.392Z,16.62
2018-09-09T04:44:57.485Z,17.67
2018-09-09T04:52:38.137Z,14.67
2018-09-09T04:55:15.593Z,15.93
2018-09-09T04:57:45.714Z,13.67
2018-09-09T05:00:15.733Z,13.33
2018-09-09T05:02:52.934Z,12.90
2018-09-09T05:05:22.950Z,12.30
2018-09-09T05:10:27.763Z,15.47
2018-09-09T05:12:56.844Z,14.45
2018-09-09T05:15:26.912Z,14.40
2018-09-09T05:20:31.706Z,15.13
2018-09-09T05:23:00.774Z,13.98
2018-09-09T05:25:44.660Z,12.40
2018-09-09T05:28:13.724Z,11.57
2018-09-09T05:30:48.578Z,12.90
2018-09-09T05:35:56.561Z,13.50
2018-09-09T05:38:25.981Z,11.60
2018-09-09T05:40:55.040Z,10.03
2018-09-09T05:43:24.128Z,11.07
2018-09-09T05:45:53.192Z,11.20
2018-09-09T05:53:33.783Z,11.50
2018-09-09T05:56:03.813Z,10.30
2018-09-09T05:58:32.885Z,10.87
2018-09-09T06:03:41.225Z,11.27
2018-09-09T06:06:10.296Z,10.90
2018-09-09T06:08:52.492Z,9.70
2018-09-09T06:11:21.556Z,8.97
2018-09-09T06:13:50.612Z,9.63
2018-09-09T06:16:22.992Z,10.83
2018-09-09T06:18:52.066Z,10.77
2018-09-09T06:21:23.117Z,10.55
2018-09-09T06:26:27.904Z,10.47
2018-09-09T06:39:19.937Z,9.50
2018-09-09T06:41:48.993Z,9.43
2018-09-09T06:44:18.050Z,8.80
2018-09-09T06:46:50.548Z,9.60
2018-09-09T06:52:03.795Z,9.57
2018-09-09T06:57:08.574Z,9.33
2018-09-09T07:04:49.285Z,8.80
2018-09-09T07:09:54.305Z,8.13
2018-09-09T07:12:28.106Z,7.87
2018-09-09T07:17:41.588Z,7.83
2018-09-09T07:22:46.525Z,8.10
2018-09-09T07:25:15.477Z,7.23
2018-09-09T07:27:44.524Z,7.33
2018-09-09T07:30:13.576Z,7.80
2018-09-09T07:32:44.536Z,7.80
2018-09-09T07:35:14.552Z,8.27
2018-09-09T07:37:48.801Z,7.40
2018-09-09T07:42:54.576Z,8.55
2018-09-09T07:45:29.484Z,6.83
2018-09-09T07:47:59.570Z,7.40
2018-09-09T07:50:29.568Z,7.07
2018-09-09T07:53:00.588Z,8.07
2018-09-09T07:55:30.590Z,7.12
2018-09-09T08:05:47.974Z,7.30
2018-09-09T08:10:52.731Z,7.30
2018-09-09T08:13:21.776Z,7.20
2018-09-09T08:15:50.856Z,5.97
2018-09-09T08:18:19.947Z,5.40
2018-09-09T08:20:57.804Z,5.77
2018-09-09T08:31:14.091Z,6.05
2018-09-09T08:36:18.945Z,6.65
2018-09-09T08:38:47.989Z,6.93
2018-09-09T08:41:17.035Z,5.70
2018-09-09T08:43:49.724Z,6.30
2018-09-09T08:46:19.709Z,6.67
2018-09-09T08:51:24.487Z,6.15
2018-09-09T08:53:54.490Z,6.00
2018-09-09T08:56:24.508Z,5.07
2018-09-09T08:59:04.567Z,5.23
2018-09-09T09:01:35.622Z,5.80
2018-09-09T09:09:17.145Z,5.80
2018-09-09T09:11:46.243Z,5.63
2018-09-09T09:14:15.278Z,4.70
2018-09-09T09:16:44.325Z,4.53
2018-09-09T09:19:14.445Z,4.57
2018-09-09T09:21:43.498Z,5.03
2018-09-09T09:24:12.592Z,4.90
2018-09-09T09:26:41.650Z,5.03
2018-09-09T09:29:11.010Z,4.93
2018-09-09T09:31:40.060Z,4.67
2018-09-09T09:34:11.101Z,4.77
2018-09-09T09:36:41.112Z,3.83
2018-09-09T09:39:11.165Z,4.70
2018-09-09T09:41:40.184Z,4.17
2018-09-09T09:46:45.621Z,4.70
2018-09-09T09:49:15.657Z,4.40
2018-09-09T09:51:44.689Z,4.23
2018-09-09T09:54:13.734Z,4.20
2018-09-09T09:59:18.596Z,4.03
2018-09-09T10:01:47.691Z,4.30
2018-09-09T10:04:16.731Z,3.60
2018-09-09T10:06:45.793Z,3.30
2018-09-09T10:11:50.654Z,3.85
2018-09-09T10:14:19.717Z,3.77
2018-09-09T10:16:48.761Z,3.23
2018-09-09T10:19:17.952Z,3.90
2018-09-09T10:29:36.342Z,3.85
2018-09-09T10:34:42.196Z,3.72
2018-09-09T10:37:12.225Z,3.00
2018-09-09T10:39:41.277Z,4.23
2018-09-09T10:42:12.263Z,3.90
2018-09-09T10:44:41.293Z,3.60
2018-09-09T10:47:10.536Z,3.60
2018-09-09T10:49:39.509Z,3.10
2018-09-09T10:54:44.784Z,3.70
2018-09-09T10:57:14.836Z,3.80
2018-09-09T10:59:45.969Z,4.15
2018-09-09T11:02:16.002Z,3.90
2018-09-09T11:04:54.151Z,3.67
2018-09-09T11:09:58.893Z,3.95
2018-09-09T11:12:27.959Z,3.80
2018-09-09T11:14:57.010Z,4.10
2018-09-09T11:17:26.162Z,4.37
2018-09-09T11:19:55.207Z,3.43
2018-09-09T11:25:01.158Z,3.67
2018-09-09T11:27:34.146Z,3.57
2018-09-09T11:30:05.168Z,3.50
2018-09-09T11:32:35.183Z,3.90
2018-09-09T11:35:04.241Z,3.90
2018-09-09T11:40:09.171Z,3.60
2018-09-09T11:42:38.240Z,3.58
2018-09-09T11:45:07.287Z,3.30
2018-09-09T11:47:36.342Z,3.27
2018-09-09T11:52:41.154Z,3.80
2018-09-09T11:55:10.279Z,3.37
2018-09-09T11:57:40.319Z,3.40
2018-09-09T12:00:09.369Z,4.27
2018-09-09T12:02:38.415Z,3.40
2018-09-09T12:05:07.460Z,3.27
2018-09-09T12:07:36.568Z,3.00
2018-09-09T12:10:05.562Z,3.30
2018-09-09T12:12:34.613Z,3.40
2018-09-09T12:17:39.473Z,3.22
2018-09-09T12:20:13.577Z,3.87
2018-09-09T12:22:43.590Z,3.27
2018-09-09T12:27:48.657Z,3.50
2018-09-09T12:30:18.653Z,3.80
2018-09-09T12:32:47.716Z,3.40
2018-09-09T12:37:52.675Z,3.40
2018-09-09T12:40:21.835Z,3.90
2018-09-09T12:42:50.866Z,3.43
2018-09-09T12:51:10.082Z,4.20
2018-09-09T12:53:39.103Z,3.97
2018-09-09T12:56:08.164Z,3.78
2018-09-09T12:58:37.279Z,4.13
2018-09-09T13:01:08.350Z,3.80
2018-09-09T13:06:15.231Z,4.18
2018-09-09T13:08:44.285Z,3.97
2018-09-09T13:11:13.354Z,3.73
2018-09-09T13:13:42.409Z,3.87
2018-09-09T13:16:11.463Z,3.57
2018-09-09T13:18:41.439Z,3.50
2018-09-09T13:21:10.503Z,4.00
2018-09-09T13:23:40.581Z,4.00
2018-09-09T13:28:45.482Z,3.70
2018-09-09T13:33:54.976Z,4.20
2018-09-09T13:36:25.060Z,3.70
2018-09-09T13:38:58.836Z,4.27
2018-09-09T13:44:03.694Z,4.20
2018-09-09T13:46:33.658Z,3.90
2018-09-09T13:49:02.733Z,3.67
2018-09-09T13:51:31.774Z,4.27
2018-09-09T13:54:04.833Z,4.37
2018-09-09T13:56:33.854Z,3.90
2018-09-09T13:59:02.911Z,4.20
2018-09-09T14:04:08.449Z,4.00
2018-09-09T14:06:37.490Z,4.33
2018-09-09T14:09:08.475Z,3.97
2018-09-09T14:11:37.528Z,4.33
2018-09-09T14:14:06.576Z,4.60
2018-09-09T14:16:35.641Z,4.22
2018-09-09T14:19:04.720Z,3.90
2018-09-09T14:24:09.681Z,4.50
2018-09-09T14:26:38.734Z,4.70
2018-09-09T14:31:44.615Z,4.30
2018-09-09T14:34:13.684Z,4.07
2018-09-09T14:36:42.737Z,4.47
2018-09-09T14:41:47.665Z,4.32
2018-09-09T14:44:16.744Z,4.40
2018-09-09T14:46:46.757Z,4.63
2018-09-09T14:49:15.832Z,3.87
2018-09-09T14:51:45.285Z,4.40
2018-09-09T14:54:15.285Z,4.20
2018-09-09T14:56:45.309Z,3.97
2018-09-09T14:59:15.327Z,4.30
2018-09-09T15:01:44.385Z,4.50
2018-09-09T15:06:49.365Z,4.10
2018-09-09T15:09:20.295Z,4.00
2018-09-09T15:11:49.346Z,4.40
2018-09-09T15:16:54.108Z,3.90
2018-09-09T15:19:23.325Z,3.73
2018-09-09T15:21:52.380Z,3.60
2018-09-09T15:24:22.406Z,3.50
2018-09-09T15:26:52.404Z,3.73
2018-09-09T15:29:21.449Z,3.70
2018-09-09T15:31:50.489Z,3.50
2018-09-09T15:34:19.570Z,4.17
2018-09-09T15:36:48.630Z,4.03
2018-09-09T15:39:17.710Z,3.60
2018-09-09T15:41:46.777Z,3.83
2018-09-09T15:44:17.014Z,4.23
2018-09-09T15:46:46.071Z,4.30
2018-09-09T15:51:52.854Z,4.30
2018-09-09T15:54:22.089Z,4.43
2018-09-09T15:56:51.134Z,4.20
2018-09-09T15:59:23.293Z,4.33
2018-09-09T16:01:52.336Z,4.20
2018-09-09T16:04:21.600Z,3.63
2018-09-09T16:06:50.979Z,4.17
2018-09-09T16:09:20.039Z,4.03
2018-09-09T16:11:49.151Z,4.15
2018-09-09T16:14:18.178Z,4.30
2018-09-09T16:16:49.153Z,5.20
2018-09-09T16:19:19.257Z,4.30
2018-09-09T16:21:50.217Z,4.00
2018-09-09T16:24:19.340Z,4.03
2018-09-09T16:26:54.038Z,4.00
2018-09-09T16:31:59.829Z,4.18
2018-09-09T16:34:29.832Z,3.67
2018-09-09T16:39:35.727Z,5.10
2018-09-09T16:44:43.961Z,4.47
2018-09-09T16:47:14.974Z,4.90
2018-09-09T16:49:44.028Z,4.43
2018-09-09T16:52:16.657Z,4.23
2018-09-09T16:57:21.554Z,4.05
2018-09-09T16:59:50.596Z,4.67
2018-09-09T17:02:19.637Z,4.90
2018-09-09T17:04:49.644Z,4.40
2018-09-09T17:07:18.670Z,4.67
2018-09-09T17:09:47.924Z,5.60
2018-09-09T17:12:26.129Z,6.40
2018-09-09T17:14:56.177Z,5.47
2018-09-09T17:17:29.642Z,4.87
2018-09-09T17:20:04.379Z,5.63
2018-09-09T17:22:33.409Z,5.60
2018-09-09T17:25:07.085Z,6.30
2018-09-09T17:27:36.157Z,6.13
2018-09-09T17:30:07.129Z,6.10
2018-09-09T17:32:39.592Z,6.60
2018-09-09T17:35:08.645Z,5.60
2018-09-09T17:37:37.712Z,5.77
2018-09-09T17:40:06.775Z,5.90
2018-09-09T17:42:35.811Z,5.77
2018-09-09T17:45:04.861Z,6.00
2018-09-09T17:47:35.840Z,5.53
2018-09-09T17:50:04.884Z,5.50
2018-09-09T17:52:33.954Z,5.00
2018-09-09T17:55:02.997Z,6.17
2018-09-09T17:57:32.080Z,5.80
2018-09-09T18:00:01.148Z,6.43
2018-09-09T18:02:30.196Z,6.55
2018-09-09T18:04:59.249Z,7.03
2018-09-09T18:07:29.228Z,9.07
2018-09-09T18:09:58.278Z,7.70
2018-09-09T18:12:29.280Z,5.60
2018-09-09T18:14:58.324Z,5.90
2018-09-09T18:20:05.114Z,6.32
2018-09-09T18:22:34.187Z,7.90
2018-09-09T18:27:39.004Z,6.95
2018-09-09T18:30:08.053Z,5.40
2018-09-09T18:32:38.015Z,6.53
2018-09-09T18:35:07.093Z,6.77
2018-09-09T18:37:39.848Z,6.50
2018-09-09T18:40:10.876Z,5.90
2018-09-09T18:45:15.712Z,6.90
2018-09-09T18:47:45.772Z,7.57
2018-09-09T18:50:14.793Z,6.45
2018-09-09T18:55:19.788Z,7.00
2018-09-09T18:57:48.793Z,8.80
2018-09-09T19:00:17.845Z,8.43
2018-09-09T19:05:22.678Z,9.20
2018-09-09T19:07:51.793Z,8.57
2018-09-09T19:10:20.816Z,8.40
2018-09-09T19:12:50.048Z,8.57
2018-09-09T19:15:19.186Z,9.23
2018-09-09T19:17:48.216Z,7.67
2018-09-09T19:20:18.309Z,7.60
2018-09-09T19:22:49.314Z,6.60
2018-09-09T19:25:19.483Z,6.30
2018-09-09T19:27:48.508Z,6.80
2018-09-09T19:30:17.705Z,6.33
2018-09-09T19:32:46.744Z,6.87
2018-09-09T19:35:16.783Z,7.22
2018-09-09T19:37:46.798Z,7.27
2018-09-09T19:40:15.832Z,7.67
2018-09-09T19:42:44.921Z,7.33
2018-09-09T19:47:49.769Z,7.90
2018-09-09T19:50:18.805Z,8.77
2018-09-09T19:52:47.908Z,7.30
2018-09-09T19:57:53.718Z,8.70
2018-09-09T20:02:58.478Z,8.90
2018-09-09T20:05:27.545Z,8.60
2018-09-09T20:07:56.590Z,8.00
2018-09-09T20:10:25.658Z,7.17
2018-09-09T20:12:54.745Z,8.20
2018-09-09T20:15:23.806Z,6.90
2018-09-09T20:17:52.896Z,6.63
2018-09-09T20:20:22.882Z,7.40
2018-09-09T20:25:28.147Z,8.70
2018-09-09T20:27:57.188Z,8.97
2018-09-09T20:30:26.258Z,8.43
2018-09-09T20:32:55.325Z,8.33
2018-09-09T20:35:26.287Z,7.90
2018-09-09T20:37:56.356Z,8.30
2018-09-09T20:40:25.421Z,8.03
2018-09-09T20:42:55.385Z,9.40
2018-09-09T20:45:24.449Z,7.30
2018-09-09T20:50:29.285Z,7.50
2018-09-09T20:52:58.352Z,7.20
2018-09-09T20:55:27.394Z,8.03
2018-09-09T20:57:57.378Z,7.13
2018-09-09T21:03:02.148Z,9.43
2018-09-09T21:05:32.137Z,7.53
2018-09-09T21:08:02.174Z,8.33
2018-09-09T21:13:06.946Z,10.17
2018-09-09T21:15:36.025Z,10.10
2018-09-09T21:18:07.076Z,8.50
2018-09-09T21:20:36.132Z,8.30
2018-09-09T21:23:05.205Z,8.37
2018-09-09T21:25:34.263Z,8.77
2018-09-09T21:28:05.325Z,9.15
2018-09-09T21:30:35.327Z,7.97
2018-09-09T21:35:40.101Z,10.40
2018-09-09T21:38:09.169Z,8.50
2018-09-09T21:40:38.228Z,8.03
2018-09-09T21:43:07.266Z,7.40
2018-09-09T21:45:37.284Z,6.80
2018-09-09T21:48:07.321Z,7.10
2018-09-09T21:53:12.090Z,8.70
2018-09-09T21:55:41.154Z,8.85
2018-09-09T21:58:10.236Z,8.00
2018-09-09T22:00:39.286Z,7.33
2018-09-09T22:03:09.283Z,8.57
2018-09-09T22:08:14.066Z,10.00
2018-09-09T22:10:43.151Z,10.07
2018-09-09T22:13:12.224Z,8.97
2018-09-09T22:15:41.287Z,8.63
2018-09-09T22:18:10.354Z,7.77
2018-09-09T22:20:39.423Z,8.50
2018-09-09T22:23:08.469Z,8.30
2018-09-09T22:28:13.307Z,10.20
2018-09-09T22:30:42.369Z,8.90
2018-09-09T22:33:12.449Z,8.90
2018-09-09T22:35:41.510Z,8.17
2018-09-09T22:38:10.575Z,9.40
2018-09-09T22:40:39.633Z,9.10
2018-09-09T22:43:08.688Z,8.70
2018-09-09T22:45:38.710Z,6.93
2018-09-09T22:48:07.773Z,8.03
2018-09-09T22:50:36.823Z,8.07
2018-09-09T22:53:07.851Z,9.20
2018-09-09T22:55:36.902Z,8.23
2018-09-09T22:58:05.951Z,7.60
2018-09-09T23:00:35.021Z,9.43
2018-09-09T23:03:04.081Z,9.40
2018-09-09T23:05:37.501Z,10.00
2018-09-09T23:08:07.469Z,8.23
2018-09-09T23:10:36.525Z,9.20
2018-09-09T23:13:05.591Z,9.07
2018-09-09T23:15:34.661Z,10.10
2018-09-09T23:18:03.732Z,7.60
2018-09-09T23:20:32.796Z,9.13
2018-09-09T23:23:01.856Z,8.97
2018-09-09T23:25:30.921Z,7.87
2018-09-09T23:27:59.970Z,8.60
2018-09-09T23:30:29.053Z,8.98
2018-09-09T23:32:59.073Z,8.57
2018-09-09T23:35:28.140Z,7.70
2018-09-09T23:37:57.393Z,8.53
2018-09-09T23:40:26.449Z,8.43
2018-09-09T23:42:56.578Z,8.97
2018-09-09T23:45:25.621Z,9.80
2018-09-09T23:47:56.646Z,10.07
2018-09-09T23:50:26.653Z,9.00
2018-09-09T23:52:56.681Z,8.50
2018-09-09T23:55:26.737Z,8.47
